Time;durP1;ratioP1;P1;durP2;ratioP2;P2;SDS_P1;SDS_P2;PMS_P1;PMS_P2;Temp;Humidity;BMP_temperature;BMP_pressure;BME280_temperature;BME280_humidity;BME280_pressure;Samples;Min_cycle;Max_cycle;Signal;HPM_P1;HPM_P2
2020/12/08 00:00:16;;;;;;;7.42;5.20;;;;;;;6.52;46.21;101065.14;1766222;79;21178;-75
2020/12/08 00:02:44;;;;;;;8.28;5.75;;;;;;;6.52;46.16;101062.50;1766469;79;21680;-77
2020/12/08 00:05:12;;;;;;;8.88;5.97;;;;;;;6.52;46.18;101057.70;1766290;79;21615;-77
2020/12/08 00:07:39;;;;;;;10.32;6.28;;;;;;;6.51;46.17;101060.83;1766118;79;22048;-76
2020/12/08 00:10:06;;;;;;;8.85;5.50;;;;;;;6.50;46.17;101061.28;1765458;81;21590;-76
2020/12/08 00:12:34;;;;;;;7.33;5.12;;;;;;;6.50;46.17;101048.09;1772431;79;21127;-77
2020/12/08 00:15:01;;;;;;;8.73;5.08;;;;;;;6.50;46.16;101054.69;1740955;80;21131;-75
2020/12/08 00:17:29;;;;;;;7.33;5.62;;;;;;;6.49;46.18;101047.73;1788675;79;21245;-76
2020/12/08 00:19:57;;;;;;;7.97;5.83;;;;;;;6.46;46.16;101038.70;1767233;80;21381;-77
2020/12/08 00:22:25;;;;;;;7.83;5.70;;;;;;;6.49;46.12;101041.14;1746094;80;21209;-78
2020/12/08 00:24:53;;;;;;;9.05;5.78;;;;;;;6.49;46.13;101045.58;1774567;80;21139;-78
2020/12/08 00:27:21;;;;;;;7.35;6.12;;;;;;;6.48;46.13;101044.71;1753656;80;21177;-76
2020/12/08 00:29:48;;;;;;;7.08;5.37;;;;;;;6.48;46.12;101033.31;1768678;80;21666;-76
2020/12/08 00:32:16;;;;;;;8.40;5.83;;;;;;;6.47;46.11;101034.26;1751664;80;21342;-76
2020/12/08 00:34:43;;;;;;;8.68;5.60;;;;;;;6.47;46.13;101041.72;1773442;80;21627;-75
2020/12/08 00:37:29;;;;;;;10.43;6.10;;;;;;;6.46;46.11;101046.63;1756572;80;21155;-76
2020/12/08 00:39:56;;;;;;;7.15;5.10;;;;;;;6.45;46.10;101036.16;1780334;80;21737;-76
2020/12/08 00:42:24;;;;;;;8.23;5.70;;;;;;;6.44;46.09;101038.45;1764842;80;21147;-76
2020/12/08 00:44:51;;;;;;;10.98;5.85;;;;;;;6.44;46.11;101035.81;1782488;80;21811;-76
2020/12/08 00:47:18;;;;;;;8.98;5.58;;;;;;;6.43;46.09;101031.02;1781593;80;21210;-76
2020/12/08 00:49:47;;;;;;;9.28;5.50;;;;;;;6.43;46.11;101042.03;1782995;80;21202;-76
2020/12/08 00:52:15;;;;;;;8.55;5.97;;;;;;;6.42;46.10;101031.96;1782757;80;21144;-76
2020/12/08 00:54:43;;;;;;;9.40;5.45;;;;;;;6.43;46.09;101036.30;1782939;80;21159;-77
2020/12/08 00:57:11;;;;;;;7.90;5.50;;;;;;;6.42;46.07;101033.77;1782150;80;21438;-77
2020/12/08 00:59:42;;;;;;;9.85;5.37;;;;;;;6.42;46.09;101032.44;1771634;80;21593;-76
2020/12/08 01:02:11;;;;;;;9.88;5.92;;;;;;;6.42;46.09;101031.13;1778039;80;22148;-75
2020/12/08 01:04:39;;;;;;;7.20;5.08;;;;;;;6.40;46.06;101019.34;1751938;80;21123;-76
2020/12/08 01:07:07;;;;;;;9.08;5.97;;;;;;;6.40;46.08;101030.39;1781800;80;21140;-76
2020/12/08 01:09:36;;;;;;;6.97;5.20;;;;;;;6.40;46.04;101022.47;1767351;80;21212;-76
2020/12/08 01:12:04;;;;;;;7.97;5.67;;;;;;;6.39;46.07;101024.25;1766627;79;21606;-75
2020/12/08 01:14:32;;;;;;;8.33;5.72;;;;;;;6.38;46.07;101008.55;1766642;79;21695;-77
2020/12/08 01:17:00;;;;;;;7.55;5.50;;;;;;;6.37;46.04;101014.27;1767319;79;21171;-75
2020/12/08 01:19:28;;;;;;;7.65;5.37;;;;;;;6.37;46.04;101009.00;1766865;79;21537;-75
2020/12/08 01:21:56;;;;;;;7.65;5.50;;;;;;;6.37;46.04;101005.52;1766784;81;21657;-76
2020/12/08 01:24:24;;;;;;;10.90;6.28;;;;;;;6.37;46.02;101003.72;1766846;79;21124;-77
2020/12/08 01:26:52;;;;;;;9.08;5.53;;;;;;;6.36;46.03;101011.28;1768346;79;21144;-75
2020/12/08 01:29:19;;;;;;;7.05;4.80;;;;;;;6.36;46.02;101017.89;1747846;79;21166;-75
2020/12/08 01:31:46;;;;;;;7.47;5.10;;;;;;;6.36;46.04;101011.77;1774661;80;21194;-76
2020/12/08 01:34:15;;;;;;;7.50;5.92;;;;;;;6.35;46.02;101017.50;1766462;81;21484;-76
2020/12/08 01:36:43;;;;;;;8.25;5.97;;;;;;;6.34;46.04;101021.11;1773746;79;21121;-76
2020/12/08 01:39:10;;;;;;;10.23;6.35;;;;;;;6.35;46.04;101023.27;1765080;80;21159;-75
2020/12/08 01:41:38;;;;;;;8.68;5.25;;;;;;;6.34;45.99;101019.80;1763280;80;21167;-77
2020/12/08 01:44:06;;;;;;;9.35;5.72;;;;;;;6.34;46.00;101021.11;1761714;80;21159;-75
2020/12/08 01:46:33;;;;;;;8.40;6.35;;;;;;;6.33;45.96;101017.26;1761969;80;21382;-74
2020/12/08 01:49:03;;;;;;;7.58;5.37;;;;;;;6.33;45.98;101019.41;1735904;79;21151;-74
2020/12/08 01:51:30;;;;;;;8.50;5.85;;;;;;;6.32;45.99;101016.42;1782664;80;21147;-75
2020/12/08 01:54:00;;;;;;;8.18;5.10;;;;;;;6.32;45.97;101010.27;1782618;79;21165;-75
2020/12/08 01:56:31;;;;;;;9.88;5.67;;;;;;;6.29;45.96;101000.30;1741593;80;21157;-77
2020/12/08 01:59:02;;;;;;;7.90;5.42;;;;;;;6.31;45.97;101014.72;1755208;80;21413;-76
2020/12/08 02:01:31;;;;;;;7.92;5.42;;;;;;;6.30;45.99;101019.65;1735961;80;21158;-76
2020/12/08 02:04:05;;;;;;;10.23;6.37;;;;;;;6.30;45.99;101018.33;1791062;79;21160;-76
2020/12/08 02:06:34;;;;;;;8.90;6.42;;;;;;;6.30;45.95;101020.97;1759118;80;21134;-78
2020/12/08 02:09:02;;;;;;;9.08;5.53;;;;;;;6.29;45.94;101031.98;1772169;80;21565;-77
2020/12/08 02:11:32;;;;;;;9.58;5.62;;;;;;;6.29;45.98;101027.19;1763965;80;21407;-76
2020/12/08 02:13:59;;;;;;;7.70;5.53;;;;;;;6.29;45.98;101031.14;1782500;80;21206;-75
2020/12/08 02:16:27;;;;;;;8.68;5.53;;;;;;;6.28;45.96;101028.16;1766690;80;21155;-75
2020/12/08 02:18:54;;;;;;;9.03;5.92;;;;;;;6.29;45.92;101023.22;1772475;80;21195;-76
2020/12/08 02:21:31;;;;;;;8.68;5.60;;;;;;;6.28;45.96;101026.83;1764332;80;21667;-77
2020/12/08 02:24:00;;;;;;;9.48;5.65;;;;;;;6.27;45.92;101024.64;1778496;80;21181;-76
2020/12/08 02:26:30;;;;;;;10.43;5.50;;;;;;;6.25;45.94;101017.80;1771955;80;21179;-74
2020/12/08 02:28:57;;;;;;;7.92;5.15;;;;;;;6.25;45.94;101017.80;1766438;81;21206;-73
2020/12/08 02:31:28;;;;;;;8.88;5.50;;;;;;;6.26;45.95;101018.19;1766555;79;21181;-72
2020/12/08 02:33:56;;;;;;;8.33;6.00;;;;;;;6.25;45.92;101013.84;1765940;81;21165;-72
2020/12/08 02:36:24;;;;;;;7.72;5.15;;;;;;;6.25;45.92;101012.52;1765979;79;21392;-73
2020/12/08 02:38:52;;;;;;;8.28;5.50;;;;;;;6.24;45.95;101011.69;1766306;79;21148;-74
2020/12/08 02:41:25;;;;;;;8.90;5.35;;;;;;;6.23;45.91;101011.30;1754707;80;21175;-74
2020/12/08 02:43:54;;;;;;;8.10;6.03;;;;;;;6.23;45.91;101017.06;1755193;80;21177;-73
2020/12/08 02:46:22;;;;;;;6.97;5.70;;;;;;;6.21;45.91;101008.42;1766904;79;21163;-73
2020/12/08 02:48:50;;;;;;;7.67;5.50;;;;;;;6.22;45.93;101011.41;1766640;79;21651;-73
2020/12/08 02:51:19;;;;;;;7.17;5.85;;;;;;;6.22;45.91;101016.69;1766622;81;21177;-74
2020/12/08 02:53:48;;;;;;;7.47;5.65;;;;;;;6.21;45.90;101018.49;1768566;79;21212;-74
2020/12/08 02:56:24;;;;;;;7.53;5.50;;;;;;;6.21;45.86;101011.89;1766455;81;21191;-74
2020/12/08 02:58:52;;;;;;;8.80;4.95;;;;;;;6.21;45.90;101007.94;1742431;81;21155;-74
2020/12/08 03:01:20;;;;;;;7.15;5.10;;;;;;;6.20;45.88;101009.36;1767229;79;21559;-75
2020/12/08 03:03:50;;;;;;;7.85;5.90;;;;;;;6.20;45.91;101000.12;1771001;79;21149;-76
2020/12/08 03:06:18;;;;;;;9.33;5.55;;;;;;;6.19;45.90;101004.56;1766582;79;21167;-75
2020/12/08 03:08:47;;;;;;;7.53;5.30;;;;;;;6.19;45.92;101007.69;1766565;79;21191;-76
2020/12/08 03:11:14;;;;;;;10.70;6.12;;;;;;;6.19;45.90;101003.73;1738691;81;21119;-76
2020/12/08 03:13:43;;;;;;;9.53;6.15;;;;;;;6.19;45.90;101003.73;1766231;79;21665;-77
2020/12/08 03:16:10;;;;;;;7.70;5.40;;;;;;;6.19;45.92;101010.33;1779892;79;21222;-77
2020/12/08 03:18:41;;;;;;;7.25;5.80;;;;;;;6.18;45.88;101012.58;1782157;80;21143;-76
2020/12/08 03:21:10;;;;;;;8.10;5.83;;;;;;;6.18;45.89;101009.95;1764453;80;21160;-75
2020/12/08 03:23:38;;;;;;;7.53;5.67;;;;;;;6.18;45.89;101000.70;1771851;80;21190;-77
2020/12/08 03:26:08;;;;;;;9.13;5.67;;;;;;;6.18;45.87;101009.95;1734315;80;21377;-76
2020/12/08 03:28:39;;;;;;;7.67;5.65;;;;;;;6.17;45.92;101003.00;1752529;80;21179;-75
2020/12/08 03:31:06;;;;;;;8.95;5.90;;;;;;;6.16;45.92;100999.52;1774519;80;21615;-75
2020/12/08 03:33:34;;;;;;;8.50;6.12;;;;;;;6.16;45.88;101002.16;1754008;80;21216;-74
2020/12/08 03:36:02;;;;;;;7.20;5.37;;;;;;;6.16;45.88;100996.88;1766795;79;21115;-75
2020/12/08 03:38:29;;;;;;;7.40;5.20;;;;;;;6.16;45.91;100990.28;1766647;79;21383;-75
2020/12/08 03:40:57;;;;;;;9.28;5.83;;;;;;;6.16;45.86;100992.06;1766165;79;21214;-76
2020/12/08 03:43:26;;;;;;;7.97;5.22;;;;;;;6.15;45.86;100985.95;1765750;79;21174;-75
2020/12/08 03:45:54;;;;;;;7.65;5.80;;;;;;;6.15;45.86;100986.43;1766003;79;21178;-75
2020/12/08 03:48:23;;;;;;;7.78;5.67;;;;;;;6.15;45.84;100993.03;1770447;79;21422;-76
2020/12/08 03:50:52;;;;;;;8.18;6.28;;;;;;;6.15;45.86;100993.03;1753033;81;21294;-76
2020/12/08 03:53:21;;;;;;;7.37;5.47;;;;;;;6.13;45.83;100984.38;1753724;81;21225;-75
2020/12/08 03:55:58;;;;;;;8.50;5.75;;;;;;;6.17;45.86;100985.84;1805920;76;28740;-74
2020/12/08 03:58:27;;;;;;;8.58;6.03;;;;;;;6.14;45.88;100991.33;1769533;78;22074;-74
2020/12/08 04:00:55;;;;;;;7.53;5.37;;;;;;;6.13;45.87;100995.77;1766733;78;21475;-75
2020/12/08 04:03:23;;;;;;;7.53;5.33;;;;;;;6.12;45.84;100984.83;1768460;78;21105;-75
2020/12/08 04:05:51;;;;;;;7.33;5.12;;;;;;;6.13;45.84;100983.06;1771531;78;21105;-75
2020/12/08 04:08:19;;;;;;;7.30;5.65;;;;;;;6.11;45.84;100985.80;1766648;78;21105;-75
2020/12/08 04:10:48;;;;;;;7.83;5.57;;;;;;;6.12;45.85;100984.00;1766253;78;21166;-76
2020/12/08 04:13:16;;;;;;;9.23;5.92;;;;;;;6.12;45.84;100978.72;1768385;79;23582;-74
2020/12/08 04:15:45;;;;;;;8.08;5.72;;;;;;;6.11;45.84;100981.84;1772013;78;21138;-75
2020/12/08 04:18:15;;;;;;;8.20;6.03;;;;;;;6.10;45.88;100978.83;1787463;78;21184;-74
2020/12/08 04:20:44;;;;;;;9.28;5.92;;;;;;;6.10;45.84;100986.73;1774059;78;21185;-75
2020/12/08 04:23:14;;;;;;;7.30;5.60;;;;;;;6.10;45.85;100984.97;1798363;78;21247;-75
2020/12/08 04:25:42;;;;;;;7.50;5.47;;;;;;;6.10;45.85;100982.78;1776802;78;21569;-75
2020/12/08 04:28:09;;;;;;;7.45;5.70;;;;;;;6.08;45.85;100971.05;1779767;78;21165;-74
2020/12/08 04:30:38;;;;;;;7.15;5.58;;;;;;;6.09;45.85;100967.44;1790863;78;21138;-74
2020/12/08 04:33:06;;;;;;;7.42;5.62;;;;;;;6.08;45.84;100967.09;1773527;78;21165;-75
2020/12/08 04:35:34;;;;;;;7.25;5.30;;;;;;;6.09;45.84;100964.80;1782920;78;21193;-74
2020/12/08 04:38:02;;;;;;;8.25;5.80;;;;;;;6.09;45.83;100958.69;1776582;78;21381;-74
2020/12/08 04:40:29;;;;;;;8.43;5.90;;;;;;;6.09;45.85;100960.00;1765875;78;21181;-75
2020/12/08 04:42:57;;;;;;;8.78;5.95;;;;;;;6.08;45.83;100961.81;1782001;78;21125;-75
2020/12/08 04:45:25;;;;;;;8.28;5.80;;;;;;;6.08;45.82;100967.09;1780089;78;21434;-75
2020/12/08 04:47:52;;;;;;;10.65;5.58;;;;;;;6.08;45.84;100970.17;1779627;78;21110;-74
2020/12/08 04:50:20;;;;;;;7.58;5.30;;;;;;;6.08;45.82;100966.22;1780062;78;21200;-74
2020/12/08 04:52:50;;;;;;;7.95;5.78;;;;;;;6.07;45.80;100974.62;1778138;78;21173;-73
2020/12/08 04:55:18;;;;;;;8.15;5.20;;;;;;;6.07;45.79;100968.51;1737182;79;21181;-75
2020/12/08 04:57:45;;;;;;;9.58;6.50;;;;;;;6.07;45.79;100969.83;1752208;79;21653;-75
2020/12/08 05:00:14;;;;;;;8.85;5.97;;;;;;;6.08;45.80;100967.53;1759619;79;21200;-74
2020/12/08 05:02:49;;;;;;;7.92;5.65;;;;;;;6.07;45.78;100969.83;1757577;79;21382;-74
2020/12/08 05:05:23;;;;;;;8.50;5.83;;;;;;;6.10;45.83;100964.31;1754761;79;29014;-75
2020/12/08 05:07:50;;;;;;;7.17;5.45;;;;;;;6.06;45.80;100966.32;1748426;79;21592;-73
2020/12/08 05:10:28;;;;;;;7.45;5.58;;;;;;;6.05;45.82;100967.77;1762994;81;22073;-74
2020/12/08 05:12:56;;;;;;;7.12;5.55;;;;;;;6.05;45.78;100971.25;1737002;81;21142;-73
2020/12/08 05:15:24;;;;;;;7.42;5.67;;;;;;;6.05;45.80;100973.89;1757088;81;21160;-73
2020/12/08 05:17:51;;;;;;;8.53;5.53;;;;;;;6.05;45.81;100967.77;1736120;81;21187;-75
2020/12/08 05:20:19;;;;;;;7.60;5.50;;;;;;;5.95;45.79;100957.03;1742618;81;21182;-75
2020/12/08 05:22:57;;;;;;;8.08;5.45;;;;;;;6.04;45.79;100961.63;1739737;81;21623;-76
2020/12/08 05:25:29;;;;;;;8.43;5.67;;;;;;;6.03;45.78;100974.47;1740755;81;21178;-76
2020/12/08 05:27:59;;;;;;;8.38;5.65;;;;;;;6.03;45.80;100972.31;1743533;81;21133;-76
2020/12/08 05:30:27;;;;;;;8.23;5.55;;;;;;;6.00;45.83;100965.45;1747555;81;21587;-74
2020/12/08 05:32:55;;;;;;;7.65;5.75;;;;;;;6.01;45.83;100969.78;1758151;79;21116;-74
2020/12/08 05:35:24;;;;;;;8.23;5.92;;;;;;;6.01;45.84;100961.03;1744018;81;21415;-75
2020/12/08 05:37:54;;;;;;;9.05;6.40;;;;;;;6.00;45.83;100960.17;1744314;81;21128;-75
2020/12/08 05:40:24;;;;;;;7.47;5.60;;;;;;;6.01;45.82;100966.31;1755885;79;21131;-77
2020/12/08 05:42:53;;;;;;;8.03;5.45;;;;;;;6.00;45.81;100968.08;1736631;81;21689;-76
2020/12/08 05:45:22;;;;;;;8.43;5.95;;;;;;;5.99;45.85;100974.78;1737073;81;21147;-76
2020/12/08 05:47:56;;;;;;;7.42;5.78;;;;;;;5.99;45.79;100966.41;1738428;81;21355;-77
2020/12/08 05:50:27;;;;;;;8.10;5.65;;;;;;;5.97;45.83;100985.46;1740096;81;21166;-76
2020/12/08 05:53:00;;;;;;;7.50;5.47;;;;;;;5.97;45.85;100986.78;1740483;79;21174;-76
2020/12/08 05:55:32;;;;;;;9.05;5.65;;;;;;;5.97;45.82;100980.19;1737339;81;28736;-76
2020/12/08 05:58:07;;;;;;;8.30;5.65;;;;;;;5.96;45.83;100978.48;1753559;81;21100;-77
2020/12/08 06:00:34;;;;;;;7.53;5.80;;;;;;;5.95;45.83;100966.69;1747422;81;21342;-76
2020/12/08 06:03:16;;;;;;;8.35;5.60;;;;;;;5.94;45.86;100980.36;1750292;81;21165;-77
2020/12/08 06:05:46;;;;;;;8.90;6.33;;;;;;;5.94;45.88;100981.67;1738502;81;21260;-75
2020/12/08 06:08:21;;;;;;;7.80;5.67;;;;;;;5.93;45.83;100985.28;1736322;79;21650;-75
2020/12/08 06:10:54;;;;;;;8.13;5.45;;;;;;;5.93;45.83;100982.64;1764928;79;21258;-76
2020/12/08 06:13:28;;;;;;;6.65;5.53;;;;;;;5.91;45.84;100976.16;1744516;81;22686;-76
2020/12/08 06:15:56;;;;;;;7.25;5.62;;;;;;;5.92;45.84;100984.90;1748909;81;21198;-76
2020/12/08 06:18:33;;;;;;;9.03;6.62;;;;;;;5.92;45.82;100984.90;1750483;81;21130;-76
2020/12/08 06:21:26;;;;;;;8.18;5.47;;;;;;;5.91;45.82;100987.19;1754778;81;21212;-76
2020/12/08 06:23:58;;;;;;;8.15;5.65;;;;;;;5.92;45.86;100984.90;1762492;79;21177;-76
2020/12/08 06:29:10;;;;;;;7.15;5.60;;;;;;;5.93;45.87;100970.77;1775423;79;28628;-75
2020/12/08 06:31:44;;;;;;;9.65;6.08;;;;;;;5.90;45.82;100978.89;1741616;80;21049;-75
2020/12/08 06:34:31;;;;;;;8.05;6.00;;;;;;;5.89;45.83;100979.83;1749177;82;22141;-76
2020/12/08 06:37:08;;;;;;;7.08;5.72;;;;;;;5.88;45.84;100980.31;1741985;82;21182;-75
2020/12/08 06:39:35;;;;;;;7.20;5.62;;;;;;;5.87;45.84;100984.37;1728053;82;21187;-77
2020/12/08 06:42:14;;;;;;;8.40;6.12;;;;;;;5.87;45.85;100969.86;1748692;82;21191;-77
2020/12/08 06:44:42;;;;;;;7.92;5.50;;;;;;;5.85;45.87;100972.63;1776101;80;21152;-76
2020/12/08 06:47:10;;;;;;;7.47;5.65;;;;;;;5.86;45.86;100976.10;1753826;81;21212;-75
2020/12/08 06:49:38;;;;;;;8.53;6.30;;;;;;;5.86;45.90;100976.10;1780544;80;21208;-76
2020/12/08 06:52:09;;;;;;;7.55;5.67;;;;;;;5.86;45.87;100982.70;1719016;82;21050;-76
2020/12/08 06:54:36;;;;;;;10.08;6.30;;;;;;;5.86;45.85;100973.47;1744600;82;21147;-74
2020/12/08 06:57:06;;;;;;;8.53;6.28;;;;;;;5.86;45.85;100984.85;1748452;82;21179;-74
2020/12/08 06:59:33;;;;;;;7.40;5.55;;;;;;;5.87;45.85;100985.69;1733531;82;21256;-74
2020/12/08 07:02:00;;;;;;;9.13;6.55;;;;;;;5.86;45.84;100982.22;1743446;82;21607;-75
2020/12/08 07:04:28;;;;;;;7.28;5.37;;;;;;;5.86;45.84;100980.89;1748963;82;21166;-75
2020/12/08 07:06:59;;;;;;;7.03;5.37;;;;;;;5.87;45.84;100989.19;1745941;81;21207;-77
2020/12/08 07:09:33;;;;;;;7.95;5.65;;;;;;;5.87;45.82;100989.19;1745636;82;21186;-75
2020/12/08 07:12:02;;;;;;;8.48;6.35;;;;;;;5.87;45.83;100977.32;1732007;82;21827;-76
2020/12/08 07:14:29;;;;;;;8.18;5.83;;;;;;;5.87;45.81;100981.28;1748563;82;21175;-76
2020/12/08 07:16:57;;;;;;;8.90;6.12;;;;;;;5.88;45.81;100980.80;1747867;82;21420;-75
2020/12/08 07:19:29;;;;;;;8.90;6.05;;;;;;;5.87;45.82;100981.28;1737444;82;21176;-76
2020/12/08 07:21:59;;;;;;;8.38;5.65;;;;;;;5.87;45.82;100985.23;1745397;82;21160;-75
2020/12/08 07:24:27;;;;;;;7.12;5.37;;;;;;;5.88;45.79;100978.16;1745303;82;21786;-75
2020/12/08 07:26:58;;;;;;;8.63;5.95;;;;;;;5.88;45.78;100985.59;1755169;80;21592;-75
2020/12/08 07:29:25;;;;;;;10.20;6.28;;;;;;;5.89;45.78;100987.73;1743924;81;21163;-75
2020/12/08 07:31:53;;;;;;;8.20;6.58;;;;;;;5.89;45.76;100976.73;1720350;81;21163;-76
2020/12/08 07:34:20;;;;;;;8.28;6.10;;;;;;;5.89;45.77;100975.42;1713108;82;21195;-75
2020/12/08 07:36:49;;;;;;;7.17;5.75;;;;;;;5.89;45.76;100978.05;1717751;81;21157;-77
2020/12/08 07:39:18;;;;;;;9.20;6.47;;;;;;;5.90;45.75;100985.00;1737362;82;21218;-77
2020/12/08 07:41:46;;;;;;;9.50;5.95;;;;;;;5.91;45.75;100981.91;1728270;82;21179;-76
2020/12/08 07:44:16;;;;;;;11.38;5.95;;;;;;;5.90;45.77;100990.27;1742756;81;21254;-73
2020/12/08 07:46:53;;;;;;;7.85;6.10;;;;;;;5.92;45.74;100994.13;1729901;81;21673;-75
2020/12/08 07:49:21;;;;;;;8.35;6.45;;;;;;;5.93;45.73;100985.28;1746881;80;22127;-75
2020/12/08 07:51:50;;;;;;;8.63;6.17;;;;;;;5.94;45.67;100990.07;1721623;82;21725;-74
2020/12/08 07:54:17;;;;;;;8.35;6.85;;;;;;;5.93;45.68;100992.33;1749639;81;21190;-75
2020/12/08 07:56:45;;;;;;;8.95;6.33;;;;;;;5.94;45.70;100991.39;1745756;81;21161;-75
2020/12/08 07:59:12;;;;;;;9.53;6.53;;;;;;;5.94;45.66;100991.39;1747526;82;21178;-74
2020/12/08 08:01:41;;;;;;;8.80;6.17;;;;;;;5.96;45.65;100992.16;1735142;82;22375;-73
2020/12/08 08:04:10;;;;;;;9.28;6.70;;;;;;;5.95;45.65;100988.69;1734199;81;21138;-74
2020/12/08 08:06:37;;;;;;;8.55;6.53;;;;;;;5.97;46.06;100992.05;1740892;82;21203;-76
2020/12/08 08:09:08;;;;;;;9.20;6.78;;;;;;;6.00;46.21;100982.59;1749436;81;21195;-74
2020/12/08 08:11:36;;;;;;;10.00;7.00;;;;;;;6.01;46.24;100985.61;1716902;83;21199;-76
2020/12/08 08:14:04;;;;;;;8.28;6.80;;;;;;;6.02;46.21;100994.36;1718018;82;21733;-72
2020/12/08 08:16:34;;;;;;;9.03;6.35;;;;;;;6.03;46.19;100992.11;1748975;82;21192;-73
2020/12/08 08:19:02;;;;;;;8.20;6.30;;;;;;;6.03;46.11;100996.89;1711994;81;21190;-76
2020/12/08 08:21:30;;;;;;;8.93;6.53;;;;;;;6.05;46.08;100987.08;1722588;82;21200;-73
2020/12/08 08:23:59;;;;;;;9.45;6.40;;;;;;;6.05;46.03;100987.56;1721810;82;21156;-74
2020/12/08 08:26:27;;;;;;;9.00;6.53;;;;;;;6.07;46.01;100974.62;1720207;82;21453;-70
2020/12/08 08:28:55;;;;;;;9.38;6.25;;;;;;;6.08;45.95;100973.68;1720965;82;21183;-74
2020/12/08 08:31:23;;;;;;;10.00;6.83;;;;;;;6.10;45.94;100973.55;1723504;82;21210;-72
2020/12/08 08:33:50;;;;;;;10.55;6.75;;;;;;;6.13;45.87;100981.74;1716578;82;21180;-74
2020/12/08 08:36:18;;;;;;;9.80;6.90;;;;;;;6.14;45.84;100979.45;1713524;81;21153;-74
2020/12/08 08:38:45;;;;;;;9.15;6.70;;;;;;;6.17;45.77;100975.29;1747369;82;22295;-74
2020/12/08 08:41:12;;;;;;;8.50;6.50;;;;;;;6.19;45.69;100978.17;1744530;81;22168;-74
2020/12/08 08:43:40;;;;;;;8.68;6.17;;;;;;;6.21;45.65;100978.07;1745084;80;21176;-75
2020/12/08 08:46:09;;;;;;;10.28;6.53;;;;;;;6.22;45.60;100975.78;1746193;81;21157;-75
2020/12/08 08:48:37;;;;;;;9.95;7.15;;;;;;;6.24;45.57;100976.55;1719825;83;21117;-75
2020/12/08 08:51:07;;;;;;;8.60;6.28;;;;;;;6.25;45.52;100969.81;1736225;82;21540;-74
2020/12/08 08:53:34;;;;;;;8.55;6.37;;;;;;;6.27;45.47;100962.63;1741506;81;21111;-76
2020/12/08 08:56:02;;;;;;;8.58;6.25;;;;;;;6.28;45.42;100962.17;1743702;80;21179;-77
2020/12/08 08:58:30;;;;;;;8.43;6.08;;;;;;;6.30;45.40;100958.95;1740291;80;21163;-77
2020/12/08 09:00:58;;;;;;;8.78;6.95;;;;;;;6.30;45.37;100955.82;1742398;80;21602;-78
2020/12/08 09:03:26;;;;;;;9.63;6.65;;;;;;;6.32;45.36;100954.40;1746429;80;22291;-79
2020/12/08 09:05:55;;;;;;;10.28;6.65;;;;;;;6.32;45.33;100962.31;1746048;82;21143;-78
2020/12/08 09:08:24;;;;;;;8.98;6.33;;;;;;;6.34;45.28;100953.81;1745747;80;21154;-76
2020/12/08 09:10:52;;;;;;;9.78;6.95;;;;;;;6.34;45.26;100961.73;1737258;80;21130;-72
2020/12/08 09:13:20;;;;;;;10.38;7.42;;;;;;;6.36;45.26;100963.77;1722405;81;21241;-73
2020/12/08 09:15:47;;;;;;;7.55;6.15;;;;;;;6.36;45.21;100962.94;1728806;81;21418;-70
2020/12/08 09:18:15;;;;;;;10.45;7.40;;;;;;;6.38;45.20;100958.39;1729427;81;21206;-72
2020/12/08 09:20:43;;;;;;;9.05;6.15;;;;;;;6.39;45.15;100965.34;1729886;81;22446;-71
2020/12/08 09:23:11;;;;;;;9.03;6.22;;;;;;;6.39;45.12;100954.30;1728429;82;21132;-70
2020/12/08 09:25:38;;;;;;;9.60;7.25;;;;;;;6.40;45.14;100959.95;1737598;80;21108;-73
2020/12/08 09:28:06;;;;;;;9.55;5.97;;;;;;;6.41;45.13;100944.95;1717957;81;21214;-72
2020/12/08 09:30:34;;;;;;;8.88;6.53;;;;;;;6.42;45.09;100952.77;1720010;82;21172;-72
2020/12/08 09:33:02;;;;;;;7.75;6.22;;;;;;;6.42;45.08;100948.80;1748339;82;21181;-70
2020/12/08 09:35:29;;;;;;;9.48;6.45;;;;;;;6.43;45.06;100954.92;1746238;81;21166;-73
2020/12/08 09:37:57;;;;;;;7.62;6.08;;;;;;;6.43;45.00;100942.59;1747751;81;21197;-72
2020/12/08 09:40:25;;;;;;;10.50;7.65;;;;;;;6.44;45.04;100945.58;1743459;81;21387;-72
2020/12/08 09:42:53;;;;;;;8.93;6.58;;;;;;;6.44;44.99;100952.17;1724466;82;21191;-72
2020/12/08 09:45:20;;;;;;;8.78;6.17;;;;;;;6.45;44.98;100941.13;1704305;83;21143;-72
2020/12/08 09:47:48;;;;;;;8.90;6.62;;;;;;;6.45;44.95;100938.04;1714342;83;21692;-71
2020/12/08 09:50:15;;;;;;;9.90;6.75;;;;;;;6.46;44.91;100949.43;1746310;80;21182;-73
2020/12/08 09:52:43;;;;;;;7.47;6.12;;;;;;;6.45;44.94;100940.68;1750170;81;21856;-71
2020/12/08 09:55:10;;;;;;;7.85;5.75;;;;;;;6.46;44.97;100951.58;1746286;81;21175;-71
2020/12/08 09:57:38;;;;;;;8.55;6.03;;;;;;;6.47;44.96;100951.09;1739210;82;21586;-73
2020/12/08 10:00:07;;;;;;;8.25;6.22;;;;;;;6.48;44.97;100945.72;1744628;80;21158;-71
2020/12/08 10:02:34;;;;;;;10.58;6.90;;;;;;;6.49;44.95;100963.25;1745059;82;21561;-72
2020/12/08 10:05:03;;;;;;;8.38;5.97;;;;;;;6.50;44.95;100946.92;1700538;83;21218;-71
2020/12/08 10:07:30;;;;;;;8.20;5.85;;;;;;;6.52;44.91;100959.54;1744169;80;21170;-71
2020/12/08 10:09:58;;;;;;;8.08;6.10;;;;;;;6.53;44.86;100955.09;1745701;80;21163;-71
2020/12/08 10:12:25;;;;;;;9.73;6.87;;;;;;;6.53;44.83;100952.00;1749176;81;21170;-73
2020/12/08 10:14:53;;;;;;;7.50;5.87;;;;;;;6.54;44.86;100955.47;1745278;81;21743;-74
2020/12/08 10:17:21;;;;;;;9.60;6.80;;;;;;;6.53;44.88;100948.49;1715330;83;22287;-71
2020/12/08 10:19:49;;;;;;;8.18;6.37;;;;;;;6.55;44.88;100941.30;1712188;82;21564;-72
2020/12/08 10:22:16;;;;;;;8.50;6.08;;;;;;;6.55;44.85;100938.66;1739509;82;21191;-72
2020/12/08 10:24:44;;;;;;;10.40;7.12;;;;;;;6.56;44.84;100942.52;1749544;81;21214;-73
2020/12/08 10:27:12;;;;;;;7.92;5.72;;;;;;;6.57;44.81;100936.78;1758625;80;21613;-72
2020/12/08 10:29:39;;;;;;;7.50;6.20;;;;;;;6.58;44.81;100927.88;1747034;80;21375;-77
2020/12/08 10:32:07;;;;;;;9.20;6.10;;;;;;;6.59;44.78;100935.70;1703925;82;21143;-75
2020/12/08 10:34:34;;;;;;;9.43;6.30;;;;;;;6.60;44.75;100928.13;1746631;82;21198;-74
2020/12/08 10:37:01;;;;;;;8.55;6.45;;;;;;;6.62;44.71;100933.30;1749571;80;21191;-74
2020/12/08 10:39:28;;;;;;;9.80;6.30;;;;;;;6.65;44.73;100929.13;1742744;82;21186;-74
2020/12/08 10:41:56;;;;;;;9.25;6.25;;;;;;;6.65;44.72;100935.23;1723848;82;21466;-73
2020/12/08 10:44:24;;;;;;;9.40;7.12;;;;;;;6.67;44.64;100932.01;1746822;82;21214;-71
2020/12/08 10:46:52;;;;;;;8.93;7.20;;;;;;;6.68;44.66;100928.87;1734042;82;21174;-72
2020/12/08 10:49:21;;;;;;;9.15;6.90;;;;;;;6.69;44.62;100923.48;1749902;81;21668;-72
2020/12/08 10:51:50;;;;;;;8.55;6.53;;;;;;;6.71;44.61;100929.15;1747271;80;21186;-74
2020/12/08 10:54:17;;;;;;;8.45;6.83;;;;;;;6.72;44.64;100926.38;1689697;83;21646;-71
2020/12/08 10:56:46;;;;;;;8.18;6.30;;;;;;;6.74;44.64;100923.62;1749420;82;21150;-72
2020/12/08 10:59:14;;;;;;;9.13;7.08;;;;;;;6.75;44.58;100930.60;1723767;82;21190;-74
2020/12/08 11:01:43;;;;;;;8.05;5.97;;;;;;;6.75;44.58;100921.36;1713415;82;21183;-71
2020/12/08 11:06:23;;;;;;;7.97;6.00;;;;;;;6.81;44.54;100914.30;1761250;79;26711;-71
2020/12/08 11:08:52;;;;;;;8.85;6.95;;;;;;;6.74;44.61;100923.62;1733505;80;21597;-73
2020/12/08 11:11:26;;;;;;;10.08;6.55;;;;;;;6.78;44.52;100921.11;1769488;78;21575;-74
2020/12/08 11:13:56;;;;;;;8.75;6.00;;;;;;;6.82;44.50;100922.59;1761235;81;21215;-72
2020/12/08 11:16:24;;;;;;;8.03;5.97;;;;;;;6.84;44.41;100916.23;1708823;81;21210;-72
2020/12/08 11:18:52;;;;;;;8.53;6.37;;;;;;;6.86;44.35;100912.98;1758051;80;21178;-73
2020/12/08 11:21:25;;;;;;;8.53;6.10;;;;;;;6.91;44.37;100918.41;1767222;81;21175;-73
2020/12/08 11:23:55;;;;;;;9.00;6.13;;;;;;;6.95;44.37;100916.72;1765233;79;22279;-72
2020/12/08 11:26:28;;;;;;;8.53;6.10;;;;;;;7.00;44.37;100911.94;1761212;79;21187;-74
2020/12/08 11:28:55;;;;;;;7.58;5.80;;;;;;;7.06;44.41;100912.80;1767621;79;21470;-74
2020/12/08 11:31:23;;;;;;;8.58;6.03;;;;;;;7.12;44.37;100911.48;1743759;81;21178;-71
2020/12/08 11:33:50;;;;;;;8.08;6.72;;;;;;;7.19;44.36;100908.75;1772177;79;21159;-75
2020/12/08 11:36:18;;;;;;;9.53;6.15;;;;;;;7.25;44.39;100902.15;1767443;81;21264;-72
2020/12/08 11:38:45;;;;;;;8.68;6.70;;;;;;;7.31;44.20;100906.12;1755564;79;21182;-71
2020/12/08 11:41:14;;;;;;;8.85;6.80;;;;;;;7.36;44.04;100902.63;1761057;78;21163;-72
2020/12/08 11:43:42;;;;;;;10.13;6.83;;;;;;;7.39;43.89;100901.91;1767483;79;21138;-70